Austinburg, Pennsylvania
Current Conditions -  °F | °C
As of 8:15 AM on Thursday 18 Dec 2014 (Local Time) from KN38 Reporting Station
Overcast Overcast  
Wind Chill: 18°   Ceiling: 1900
Heat Index: 28°   Visibility: 10mi
Dew Point: 21°   Wind: 13mph
Humidity: 74%   Direction: 300°WNW
Pressure: 30.02"   Gusts: NA
Location:  41.9659°N, 77.4284°W
Report Text: KN38 181315Z AUTO 30011KT 10SM OVC019 M02/M06 A3002 RMK AO2
Loading
Personal Weather Stations






























Interactive Weather Map New forecast layout! Learn more

10-Day Weather Forecast

Advertisements
Track Severe Weather on mobile